Time;durP1;ratioP1;P1;durP2;ratioP2;P2;SDS_P1;SDS_P2;PMS_P1;PMS_P2;Temp;Humidity;BMP_temperature;BMP_pressure;BME280_temperature;BME280_humidity;BME280_pressure;Samples;Min_cycle;Max_cycle;Signal;HPM_P1;HPM_P2
2022/08/11 00:00:15;;;;;;;6.63;3.05;;;22.00;99.90;;;;;;5943932;24;20008;-79
2022/08/11 00:02:47;;;;;;;7.97;3.28;;;21.90;99.90;;;;;;5967941;24;20020;-79
2022/08/11 00:05:18;;;;;;;7.03;2.75;;;22.00;99.90;;;;;;5967662;24;20020;-77
2022/08/11 00:07:56;;;;;;;8.13;2.97;;;21.90;99.70;;;;;;5944137;24;20008;-78
2022/08/11 00:10:25;;;;;;;7.38;3.33;;;21.90;99.90;;;;;;5943607;24;20040;-81
2022/08/11 00:13:01;;;;;;;8.68;2.70;;;22.00;99.90;;;;;;5971018;24;20005;-79
2022/08/11 00:15:41;;;;;;;7.30;3.20;;;22.10;99.90;;;;;;5968826;24;20480;-82
2022/08/11 00:18:08;;;;;;;5.82;3.00;;;22.10;99.70;;;;;;5943941;24;20020;-82
2022/08/11 00:20:39;;;;;;;5.10;2.83;;;22.10;99.80;;;;;;5967398;24;20065;-79
2022/08/11 00:23:16;;;;;;;6.63;3.08;;;22.10;99.90;;;;;;5942723;24;20090;-78
2022/08/11 00:25:51;;;;;;;7.75;3.15;;;22.10;99.70;;;;;;5944459;24;20696;-78
2022/08/11 00:28:35;;;;;;;7.18;3.20;;;22.10;99.80;;;;;;5943039;24;20008;-85
2022/08/11 00:31:26;;;;;;;8.00;3.17;;;22.00;99.80;;;;;;5943213;24;20046;-81
2022/08/11 00:33:52;;;;;;;6.25;3.08;;;18.10;99.30;;;;;;5944149;24;20012;-78
2022/08/11 00:36:22;;;;;;;6.00;3.00;;;21.90;99.70;;;;;;5943890;24;20015;-87
2022/08/11 00:38:51;;;;;;;5.13;2.78;;;21.90;99.90;;;;;;5943605;24;20000;-79
2022/08/11 00:41:26;;;;;;;6.38;2.65;;;21.80;99.90;;;;;;5943508;24;20240;-79
2022/08/11 00:44:00;;;;;;;8.05;3.30;;;22.00;99.90;;;;;;5969499;24;20071;-78
2022/08/11 00:46:26;;;;;;;7.65;3.22;;;22.00;99.90;;;;;;5968947;24;20083;-79
2022/08/11 00:49:05;;;;;;;10.88;4.45;;;22.00;99.30;;;;;;5943541;24;20023;-80
2022/08/11 00:51:51;;;;;;;6.20;3.35;;;20.50;98.70;;;;;;5943590;24;20005;-83
2022/08/11 00:54:37;;;;;;;6.38;3.10;;;21.60;99.90;;;;;;5967802;24;20012;-80
2022/08/11 00:57:51;;;;;;;6.85;2.72;;;21.60;99.90;;;;;;5943577;24;20016;-79
2022/08/11 01:00:24;;;;;;;5.93;3.30;;;21.50;99.90;;;;;;5967737;24;20007;-80
2022/08/11 01:03:34;;;;;;;6.80;3.17;;;21.60;99.90;;;;;;5966882;23;20008;-78
2022/08/11 01:06:29;;;;;;;7.15;3.13;;;21.80;99.90;;;;;;5939809;24;20340;-79
2022/08/11 01:09:34;;;;;;;6.15;3.15;;;23.60;99.90;;;;;;5938342;24;20024;-78
2022/08/11 01:12:18;;;;;;;5.63;2.65;;;21.80;99.90;;;;;;5938122;24;20087;-78
2022/08/11 01:14:59;;;;;;;8.00;2.72;;;21.70;99.90;;;;;;5938620;24;20005;-78
2022/08/11 01:17:28;;;;;;;6.25;3.45;;;21.00;99.70;;;;;;5938897;24;20012;-81
2022/08/11 01:20:12;;;;;;;5.80;2.65;;;21.80;99.90;;;;;;5938392;24;20000;-79
2022/08/11 01:22:57;;;;;;;6.32;3.17;;;24.90;99.90;;;;;;5939269;24;20071;-81
2022/08/11 01:26:12;;;;;;;5.95;2.80;;;21.70;99.90;;;;;;5937458;24;20645;-78
2022/08/11 01:28:56;;;;;;;8.02;2.90;;;21.80;99.90;;;;;;5937702;24;20015;-79
2022/08/11 01:31:58;;;;;;;6.45;3.03;;;20.30;99.70;;;;;;5938487;24;20020;-79
2022/08/11 01:35:02;;;;;;;8.45;3.60;;;21.80;99.70;;;;;;5937504;24;20059;-84
2022/08/11 01:37:58;;;;;;;5.38;2.83;;;21.80;99.90;;;;;;5938763;24;20019;-82
2022/08/11 01:40:48;;;;;;;5.80;2.42;;;21.70;99.80;;;;;;5937452;24;20043;-82
2022/08/11 01:47:01;;;;;;;6.85;3.28;;;21.80;99.90;;;;;;5939140;24;20051;-82
2022/08/11 01:50:07;;;;;;;6.55;3.22;;;21.80;99.80;;;;;;5938181;24;20004;-79
2022/08/11 01:53:17;;;;;;;6.18;2.88;;;21.90;99.80;;;;;;5804484;24;20342;-82
2022/08/11 01:59:34;;;;;;;10.45;3.30;;;21.80;99.80;;;;;;5827663;24;20118;-80
2022/08/11 02:02:44;;;;;;;6.03;2.90;;;19.10;99.20;;;;;;5805327;24;20093;-79
2022/08/11 02:05:43;;;;;;;9.13;3.28;;;21.80;99.70;;;;;;5804689;24;20542;-83
2022/08/11 02:08:09;;;;;;;7.32;2.85;;;21.90;99.80;;;;;;5804535;24;20076;-79
2022/08/11 02:14:22;;;;;;;8.63;3.72;;;22.50;99.70;;;;;;5830286;24;20210;-81
2022/08/11 02:17:16;;;;;;;6.53;2.58;;;23.70;99.90;;;;;;5829543;24;20018;-83
2022/08/11 02:26:02;;;;;;;5.90;2.95;;;20.20;99.90;;;;;;5828001;24;20013;-81
2022/08/11 02:28:58;;;;;;;7.73;3.13;;;21.60;99.90;;;;;;5917704;24;20009;-80
2022/08/11 02:35:22;;;;;;;6.57;3.55;;;19.70;99.40;;;;;;5966799;24;20111;-78
2022/08/11 02:38:18;;;;;;;5.30;2.38;;;21.30;99.30;;;;;;5966304;24;20063;-78
2022/08/11 02:40:56;;;;;;;6.55;2.90;;;21.10;99.70;;;;;;5941962;24;20088;-78
2022/08/11 02:43:43;;;;;;;10.82;3.28;;;17.80;99.30;;;;;;5965718;24;20036;-79
2022/08/11 02:46:55;;;;;;;5.72;3.15;;;21.30;99.90;;;;;;5941435;24;20649;-79
2022/08/11 02:49:54;;;;;;;6.18;3.00;;;21.00;99.90;;;;;;5853539;24;20245;-86
2022/08/11 02:52:31;;;;;;;8.98;3.15;;;20.70;99.70;;;;;;5853976;24;20021;-78
2022/08/11 02:55:17;;;;;;;5.25;2.58;;;20.20;99.90;;;;;;5832018;24;20508;-77
2022/08/11 02:58:08;;;;;;;10.00;3.25;;;21.50;99.90;;;;;;5853525;24;20002;-82
2022/08/11 03:00:49;;;;;;;7.22;3.28;;;19.40;99.90;;;;;;5853417;24;20029;-77
2022/08/11 03:03:43;;;;;;;5.07;2.53;;;19.20;99.90;;;;;;5830600;24;20029;-78
2022/08/11 03:06:18;;;;;;;6.03;3.17;;;18.70;99.90;;;;;;5852968;24;20104;-78
2022/08/11 03:08:55;;;;;;;7.60;3.70;;;18.60;99.90;;;;;;5830227;24;20109;-78
2022/08/11 03:18:25;;;;;;;7.97;3.13;;;18.10;99.90;;;;;;5776902;24;20025;-75
2022/08/11 03:21:06;;;;;;;6.13;2.72;;;17.90;99.90;;;;;;5777859;24;20022;-77
2022/08/11 03:23:40;;;;;;;6.55;3.28;;;17.80;99.90;;;;;;5777603;24;20213;-78
2022/08/11 03:26:14;;;;;;;8.60;3.50;;;17.80;99.90;;;;;;5857709;24;20085;-75
2022/08/11 03:28:49;;;;;;;12.15;4.70;;;17.60;99.90;;;;;;5856974;24;20661;-77
2022/08/11 03:31:24;;;;;;;8.23;3.35;;;17.70;99.90;;;;;;5857476;24;20006;-77
2022/08/11 03:35:12;;;;;;;8.93;4.53;;;17.60;99.90;;;;;;5841339;24;20014;-87
2022/08/11 03:37:50;;;;;;;10.00;4.63;;;18.40;99.90;;;;;;5739064;25;20070;-83
2022/08/11 03:43:50;;;;;;;7.85;3.55;;;17.60;99.90;;;;;;5732830;25;20127;-82
2022/08/11 03:46:44;;;;;;;7.68;3.30;;;18.50;99.90;;;;;;5705762;25;20020;-78
2022/08/11 03:49:32;;;;;;;8.60;3.15;;;19.30;99.90;;;;;;5727661;25;20062;-78
2022/08/11 03:52:20;;;;;;;7.10;3.40;;;19.80;99.90;;;;;;5728435;25;20023;-75
2022/08/11 03:55:09;;;;;;;6.15;2.95;;;20.30;99.90;;;;;;5784800;24;20038;-78
2022/08/11 03:57:58;;;;;;;9.02;3.42;;;20.60;99.90;;;;;;5783586;24;20060;-75
2022/08/11 04:00:43;;;;;;;6.13;2.92;;;20.70;99.90;;;;;;5804759;24;20105;-84
2022/08/11 04:03:26;;;;;;;7.30;3.40;;;21.00;99.90;;;;;;5804850;24;20034;-75
2022/08/11 04:06:19;;;;;;;7.00;3.53;;;17.60;99.90;;;;;;5806784;24;20035;-75
2022/08/11 04:09:09;;;;;;;7.75;3.25;;;21.20;99.90;;;;;;5806743;24;20018;-76
2022/08/11 04:11:43;;;;;;;6.18;3.47;;;21.10;99.90;;;;;;5918858;24;20080;-75
2022/08/11 04:17:36;;;;;;;6.00;3.13;;;21.00;99.90;;;;;;5974087;24;20043;-77
2022/08/11 04:20:27;;;;;;;6.75;3.33;;;21.20;99.90;;;;;;5972025;24;20004;-76
2022/08/11 04:23:02;;;;;;;9.00;3.85;;;20.70;99.90;;;;;;5970116;24;20349;-75
2022/08/11 04:25:36;;;;;;;7.57;3.10;;;20.60;99.90;;;;;;5968155;24;20041;-77
2022/08/11 04:28:02;;;;;;;8.20;2.88;;;21.30;99.90;;;;;;5944798;24;20549;-76
2022/08/11 04:30:56;;;;;;;6.47;3.78;;;20.90;99.90;;;;;;5968401;24;20083;-76
2022/08/11 04:33:36;;;;;;;8.02;3.10;;;21.20;99.90;;;;;;5968124;23;20008;-82
2022/08/11 04:37:30;;;;;;;8.73;3.05;;;21.20;99.90;;;;;;5968657;24;20008;-76
2022/08/11 04:39:18;;;;;;;;;;;21.30;99.90;;;;;;5968628;24;20067;-76
2022/08/11 04:45:33;;;;;;;8.15;3.13;;;21.30;99.90;;;;;;5967754;24;20099;-80
2022/08/11 05:07:52;;;;;;;5.70;2.67;;;21.00;99.90;;;;;;5967543;24;20062;-77
2022/08/11 05:10:40;;;;;;;6.28;3.00;;;21.10;99.90;;;;;;5854132;24;20006;-81
2022/08/11 05:36:01;;;;;;;7.70;3.00;;;22.00;99.40;;;;;;5853634;24;20021;-76
2022/08/11 05:58:06;;;;;;;9.80;3.67;;;21.70;97.60;;;;;;5968043;24;20011;-76
2022/08/11 06:01:03;;;;;;;7.15;2.85;;;21.50;98.70;;;;;;5967345;24;20008;-83
2022/08/11 06:03:31;;;;;;;6.72;3.15;;;21.30;99.20;;;;;;5967407;24;20051;-77
2022/08/11 06:05:58;;;;;;;7.90;3.75;;;21.50;99.30;;;;;;5968044;24;20030;-75
2022/08/11 06:08:34;;;;;;;7.57;3.35;;;21.30;97.90;;;;;;5942612;24;20203;-76
2022/08/11 06:11:04;;;;;;;6.22;3.15;;;21.10;99.90;;;;;;5966314;24;20004;-76
2022/08/11 06:13:48;;;;;;;6.80;3.10;;;21.40;99.60;;;;;;5942499;24;20008;-78
2022/08/11 06:16:22;;;;;;;7.63;3.90;;;21.50;99.80;;;;;;5966690;24;20064;-76
2022/08/11 06:19:13;;;;;;;7.30;3.75;;;22.00;98.80;;;;;;5966666;24;20008;-75
2022/08/11 06:21:46;;;;;;;6.88;3.17;;;23.40;99.20;;;;;;5966919;24;20083;-76
2022/08/11 06:24:15;;;;;;;7.20;3.63;;;21.30;99.50;;;;;;5941531;24;20039;-77
2022/08/11 06:26:49;;;;;;;8.20;3.88;;;21.30;99.90;;;;;;5966838;24;20004;-76
2022/08/11 06:29:17;;;;;;;6.22;2.80;;;22.30;99.90;;;;;;5966817;24;20001;-77
2022/08/11 06:32:02;;;;;;;7.40;3.65;;;21.60;99.30;;;;;;5057933;27;20417;-76
2022/08/11 06:34:40;;;;;;;8.10;3.72;;;22.00;99.40;;;;;;5057457;28;20120;-76
2022/08/11 06:37:42;;;;;;;10.27;3.80;;;21.90;98.90;;;;;;5058174;28;20039;-74
2022/08/11 06:40:34;;;;;;;6.78;3.60;;;21.90;99.00;;;;;;5052410;28;20743;-79
2022/08/11 06:43:09;;;;;;;6.53;3.05;;;22.10;98.40;;;;;;5035637;28;20028;-82
2022/08/11 06:45:56;;;;;;;7.70;4.28;;;22.50;98.60;;;;;;5052378;28;20782;-75
2022/08/11 06:48:23;;;;;;;6.38;3.10;;;22.30;98.20;;;;;;5035813;28;20017;-77
2022/08/11 06:51:11;;;;;;;7.30;3.78;;;22.50;98.30;;;;;;5052572;28;20049;-75
2022/08/11 06:54:02;;;;;;;8.25;4.35;;;23.20;98.50;;;;;;5052293;28;20017;-76
2022/08/11 07:02:25;;;;;;;10.40;4.68;;;21.70;99.30;;;;;;5052630;28;20591;-78
2022/08/11 07:04:55;;;;;;;9.60;4.60;;;18.20;98.90;;;;;;5052402;28;20176;-75
2022/08/11 07:16:43;;;;;;;10.30;5.00;;;22.40;98.10;;;;;;5053488;28;20101;-76
2022/08/11 07:31:23;;;;;;;10.15;6.00;;;22.10;98.70;;;;;;5059628;28;20059;-79
2022/08/11 07:34:22;;;;;;;8.43;4.03;;;22.00;98.60;;;;;;5073729;28;20122;-80
2022/08/11 07:37:01;;;;;;;8.98;4.60;;;22.40;99.00;;;;;;5073802;28;20428;-78
2022/08/11 07:39:30;;;;;;;11.30;5.35;;;22.40;98.70;;;;;;5058402;28;20654;-78
2022/08/11 07:42:07;;;;;;;12.85;7.35;;;21.90;98.70;;;;;;5049354;28;20021;-76
2022/08/11 07:48:10;;;;;;;13.82;6.82;;;21.10;98.90;;;;;;5057547;28;20032;-76
2022/08/11 07:52:54;;;;;;;13.95;8.57;;;21.60;99.10;;;;;;5040484;28;20032;-79
2022/08/11 07:55:24;;;;;;;8.90;4.75;;;21.60;99.20;;;;;;5039927;28;20021;-77
2022/08/11 08:17:56;;;;;;;8.35;3.92;;;22.00;97.90;;;;;;5039452;28;20064;-78
2022/08/11 08:20:31;;;;;;;9.13;4.78;;;22.30;97.70;;;;;;5040090;28;20569;-77
2022/08/11 08:22:59;;;;;;;9.93;4.38;;;22.60;96.60;;;;;;5040742;28;20052;-76
2022/08/11 08:25:31;;;;;;;8.95;3.90;;;22.90;95.20;;;;;;5040410;28;20075;-79
2022/08/11 08:28:01;;;;;;;7.03;3.60;;;23.00;94.80;;;;;;5038767;28;20094;-79
2022/08/11 08:30:48;;;;;;;8.52;3.95;;;23.10;94.00;;;;;;5038672;28;20570;-81
2022/08/11 08:33:21;;;;;;;7.82;3.47;;;23.20;93.80;;;;;;5038970;28;20044;-80
2022/08/11 08:36:10;;;;;;;8.05;3.45;;;23.60;92.00;;;;;;5038918;28;20047;-81
2022/08/11 08:38:37;;;;;;;9.77;3.42;;;24.00;92.70;;;;;;5039970;28;20021;-80
2022/08/11 08:41:03;;;;;;;6.72;3.25;;;22.20;91.90;;;;;;5038913;28;20720;-80
2022/08/11 08:43:31;;;;;;;10.25;4.20;;;23.60;92.90;;;;;;5040161;28;20020;-80
2022/08/11 08:46:01;;;;;;;6.85;3.50;;;23.60;92.40;;;;;;5040494;28;20024;-80
2022/08/11 08:48:34;;;;;;;6.88;3.42;;;23.60;92.80;;;;;;5022563;28;20052;-82
2022/08/11 08:54:02;;;;;;;7.50;3.13;;;24.20;90.30;;;;;;5039074;28;20098;-81
2022/08/11 08:56:33;;;;;;;8.13;3.75;;;23.10;90.70;;;;;;5038401;28;20667;-79
2022/08/11 08:59:15;;;;;;;8.13;3.60;;;23.90;90.10;;;;;;5038558;28;20037;-79
2022/08/11 09:01:50;;;;;;;9.15;3.25;;;23.90;89.50;;;;;;5040313;28;20332;-79
2022/08/11 09:04:18;;;;;;;9.50;3.33;;;23.80;90.30;;;;;;5039245;28;20021;-81
2022/08/11 09:06:46;;;;;;;5.28;2.33;;;23.90;89.10;;;;;;5039534;28;20025;-80
2022/08/11 09:09:13;;;;;;;3.42;1.65;;;24.00;85.40;;;;;;5039896;28;20078;-79
2022/08/11 09:11:52;;;;;;;6.10;2.30;;;24.30;79.10;;;;;;5040768;28;20038;-80
2022/08/11 09:17:19;;;;;;;8.88;2.88;;;24.00;84.50;;;;;;5019042;28;20112;-81
2022/08/11 09:19:50;;;;;;;5.60;2.65;;;24.00;85.20;;;;;;5020101;28;20389;-84
2022/08/11 09:27:59;;;;;;;4.28;1.85;;;25.00;76.20;;;;;;5033061;23;20063;-78
2022/08/11 09:30:42;;;;;;;5.35;2.30;;;24.80;72.40;;;;;;5021012;28;20036;-78
2022/08/11 09:33:10;;;;;;;4.72;2.13;;;25.60;75.20;;;;;;5020644;28;20713;-75
2022/08/11 09:35:42;;;;;;;8.13;2.08;;;25.50;70.30;;;;;;5043944;28;20629;-78
2022/08/11 09:41:00;;;;;;;5.63;1.50;;;26.20;66.30;;;;;;5048556;28;20051;-77
2022/08/11 09:46:31;;;;;;;3.85;1.75;;;27.40;63.90;;;;;;5039550;28;20568;-80
2022/08/11 09:49:08;;;;;;;4.43;1.40;;;27.20;60.50;;;;;;5022416;28;20029;-78
2022/08/11 09:51:40;;;;;;;3.65;1.52;;;27.00;60.50;;;;;;5021969;28;20037;-78
2022/08/11 09:54:07;;;;;;;4.13;1.63;;;27.20;58.70;;;;;;5020787;28;20024;-78
2022/08/11 09:59:22;;;;;;;3.97;1.52;;;27.40;58.60;;;;;;5039922;28;20036;-78
2022/08/11 10:01:56;;;;;;;4.65;1.52;;;24.60;53.30;;;;;;5019786;28;20693;-76
2022/08/11 10:04:41;;;;;;;2.67;1.27;;;27.80;57.20;;;;;;5020174;28;20036;-76
2022/08/11 10:07:09;;;;;;;4.03;1.40;;;27.90;56.00;;;;;;5044015;28;20017;-78
2022/08/11 10:10:02;;;;;;;3.75;1.23;;;28.00;55.00;;;;;;5022890;28;20025;-78
2022/08/11 10:12:40;;;;;;;3.00;1.10;;;27.80;54.70;;;;;;5025927;28;20037;-77
2022/08/11 10:15:33;;;;;;;3.33;1.48;;;27.90;58.10;;;;;;5026332;28;20021;-77
2022/08/11 10:18:52;;;;;;;6.65;1.40;;;27.70;54.30;;;;;;5027934;28;20116;-78
2022/08/11 10:21:39;;;;;;;3.97;1.02;;;27.90;53.90;;;;;;4979296;28;20022;-74
2022/08/11 10:26:54;;;;;;;3.38;1.30;;;28.10;52.50;;;;;;4979805;28;20539;-77
2022/08/11 10:34:58;;;;;;;3.92;1.40;;;28.30;53.90;;;;;;4985837;28;20503;-77
2022/08/11 10:37:25;;;;;;;6.10;1.63;;;28.50;53.80;;;;;;4986716;28;20026;-75
2022/08/11 10:39:55;;;;;;;2.67;1.10;;;28.40;51.60;;;;;;4985030;28;20131;-77
2022/08/11 10:47:59;;;;;;;4.38;1.38;;;28.50;51.90;;;;;;5019339;22;20060;-77
2022/08/11 10:58:59;;;;;;;4.05;1.50;;;29.50;52.00;;;;;;5000481;28;20037;-80
2022/08/11 11:01:57;;;;;;;3.67;1.40;;;31.50;53.20;;;;;;4981711;28;20569;-84
2022/08/11 11:04:43;;;;;;;4.07;1.48;;;29.40;50.80;;;;;;4981723;28;20029;-80
2022/08/11 11:07:24;;;;;;;4.65;1.65;;;29.20;50.40;;;;;;4981216;28;20029;-82
2022/08/11 11:10:04;;;;;;;3.67;1.70;;;29.30;55.20;;;;;;4981102;28;20045;-78
2022/08/11 11:18:22;;;;;;;2.47;1.30;;;30.10;51.20;;;;;;5002252;28;20574;-81
2022/08/11 11:21:03;;;;;;;3.97;1.70;;;29.30;50.70;;;;;;4984710;28;20281;-81
2022/08/11 11:23:46;;;;;;;3.28;1.50;;;30.40;49.60;;;;;;5002723;28;20014;-84
2022/08/11 11:26:44;;;;;;;;;;;30.70;49.80;;;;;;5005968;28;20014;-84
2022/08/11 11:29:45;;;;;;;2.95;1.38;;;30.70;49.10;;;;;;4985053;28;19915;-82
2022/08/11 11:32:20;;;;;;;2.08;1.35;;;30.90;49.60;;;;;;4983631;28;20076;-80
2022/08/11 11:35:03;;;;;;;3.72;1.70;;;30.60;50.70;;;;;;4990101;28;20017;-80
2022/08/11 11:37:34;;;;;;;4.05;1.77;;;31.10;48.30;;;;;;4972217;28;20092;-80
2022/08/11 11:40:09;;;;;;;4.77;1.43;;;31.20;48.00;;;;;;4969089;28;20025;-84
2022/08/11 11:42:42;;;;;;;3.90;1.58;;;33.70;50.40;;;;;;5002858;28;20042;-83
2022/08/11 11:45:14;;;;;;;3.10;1.60;;;31.70;48.20;;;;;;4984538;28;20542;-81
2022/08/11 11:47:40;;;;;;;4.78;2.05;;;31.80;45.20;;;;;;4975728;28;20049;-81
2022/08/11 11:50:08;;;;;;;3.42;1.60;;;31.50;45.00;;;;;;4985083;28;20670;-80
2022/08/11 11:52:38;;;;;;;3.10;1.33;;;31.50;45.80;;;;;;4956977;28;20026;-80
2022/08/11 11:55:08;;;;;;;3.53;1.50;;;31.20;45.80;;;;;;4974095;28;20530;-79
2022/08/11 12:03:11;;;;;;;3.72;1.42;;;29.80;47.00;;;;;;4992250;28;20121;-80
2022/08/11 12:05:42;;;;;;;3.03;1.33;;;29.60;47.50;;;;;;4971586;28;20022;-79
2022/08/11 12:08:16;;;;;;;3.83;1.65;;;29.90;47.30;;;;;;4968357;28;20090;-78
2022/08/11 12:10:47;;;;;;;4.43;1.50;;;30.20;47.50;;;;;;4980633;28;20528;-78
2022/08/11 12:13:39;;;;;;;1.58;1.13;;;30.70;48.10;;;;;;4981010;28;20034;-80
2022/08/11 12:16:09;;;;;;;5.93;1.60;;;30.80;47.10;;;;;;4981003;28;20035;-81
2022/08/11 12:18:42;;;;;;;2.88;1.60;;;31.20;47.50;;;;;;4963677;28;20602;-81
2022/08/11 12:21:10;;;;;;;3.33;1.30;;;31.60;44.90;;;;;;4963911;28;20030;-80
2022/08/11 12:29:08;;;;;;;4.10;1.23;;;33.40;44.10;;;;;;4983743;28;20022;-81
2022/08/11 12:31:41;;;;;;;2.67;1.20;;;34.10;42.80;;;;;;5001358;28;20585;-78
2022/08/11 12:34:11;;;;;;;2.42;1.30;;;34.00;42.60;;;;;;5001007;28;20018;-77
2022/08/11 12:36:40;;;;;;;2.53;1.40;;;34.10;42.90;;;;;;4998281;28;20088;-76
2022/08/11 12:39:12;;;;;;;3.65;1.60;;;34.30;42.00;;;;;;4966290;28;20109;-76
2022/08/11 12:47:17;;;;;;;4.35;1.58;;;35.60;41.60;;;;;;4983801;28;20631;-78
2022/08/11 12:52:44;;;;;;;3.55;1.33;;;36.50;39.80;;;;;;4989481;28;20658;-78
2022/08/11 12:58:15;;;;;;;2.00;1.00;;;36.90;39.30;;;;;;4999385;28;20079;-79
2022/08/11 13:06:23;;;;;;;3.28;1.75;;;37.70;39.00;;;;;;4988514;28;20042;-77
2022/08/11 13:08:50;;;;;;;3.78;1.77;;;37.00;39.10;;;;;;4987921;28;20024;-77
2022/08/11 13:14:03;;;;;;;4.40;2.10;;;37.20;39.10;;;;;;4990235;28;20169;-77
2022/08/11 13:17:19;;;;;;;4.32;1.92;;;37.00;38.30;;;;;;4963244;28;20029;-76
2022/08/11 13:19:20;;;;;;;2.80;1.52;;;36.50;38.50;;;;;;4979006;28;20052;-76
2022/08/11 13:21:47;;;;;;;5.10;2.00;;;36.90;40.50;;;;;;4979579;28;20015;-76
2022/08/11 13:24:14;;;;;;;4.60;1.75;;;37.10;38.50;;;;;;4979106;28;20646;-75
2022/08/11 13:26:45;;;;;;;3.40;1.70;;;37.10;39.70;;;;;;4979269;28;20015;-76
2022/08/11 13:29:13;;;;;;;5.57;2.00;;;37.90;39.10;;;;;;4983753;28;20020;-76
2022/08/11 13:31:43;;;;;;;5.85;2.15;;;37.80;38.80;;;;;;5001791;28;20727;-76
2022/08/11 13:34:09;;;;;;;4.57;1.83;;;38.20;38.50;;;;;;4983059;28;20112;-75
2022/08/11 13:36:39;;;;;;;4.95;2.00;;;38.20;38.90;;;;;;4966314;28;20029;-75
2022/08/11 13:39:05;;;;;;;3.97;2.00;;;38.00;37.00;;;;;;4982693;28;20647;-77
2022/08/11 13:41:38;;;;;;;3.72;1.88;;;38.20;37.50;;;;;;4965583;28;20034;-76
2022/08/11 13:44:28;;;;;;;4.40;2.10;;;38.00;38.30;;;;;;4965032;28;20026;-78
2022/08/11 13:47:20;;;;;;;;;;;;;;;;;;;;;
2022/08/11 13:49:51;;;;;;;5.03;2.10;;;40.00;39.00;;;;;;4961666;28;20027;-79
2022/08/11 13:52:18;;;;;;;5.43;2.13;;;37.80;39.10;;;;;;4960489;28;20022;-80
2022/08/11 13:54:47;;;;;;;5.18;2.67;;;38.20;38.10;;;;;;4959548;28;20034;-76
2022/08/11 13:57:18;;;;;;;6.07;2.45;;;38.20;38.60;;;;;;4970292;28;20043;-76
2022/08/11 14:00:08;;;;;;;5.70;2.47;;;37.70;39.30;;;;;;4976319;28;20720;-79
2022/08/11 14:02:36;;;;;;;4.18;1.80;;;37.50;39.20;;;;;;4975921;28;20118;-80
2022/08/11 14:05:14;;;;;;;5.28;2.40;;;37.30;38.30;;;;;;4975621;28;20019;-75
2022/08/11 14:07:58;;;;;;;6.97;2.45;;;37.80;38.10;;;;;;4974901;28;20203;-75
2022/08/11 14:10:30;;;;;;;5.70;2.65;;;37.70;38.30;;;;;;4962758;28;20038;-78
2022/08/11 14:16:01;;;;;;;8.18;2.60;;;38.50;37.90;;;;;;4962249;28;20103;-77
2022/08/11 14:18:30;;;;;;;3.63;1.90;;;38.90;38.00;;;;;;4961716;28;20066;-77
2022/08/11 14:23:56;;;;;;;3.35;1.90;;;38.50;37.10;;;;;;4962665;28;20093;-77
2022/08/11 14:26:23;;;;;;;6.25;2.15;;;38.80;37.60;;;;;;4965422;28;20050;-80
2022/08/11 14:29:25;;;;;;;5.90;2.63;;;39.30;37.30;;;;;;4964629;28;20015;-80
2022/08/11 14:31:57;;;;;;;6.65;2.35;;;38.90;37.50;;;;;;4964030;28;20054;-79
2022/08/11 14:34:24;;;;;;;;;;;38.70;37.00;;;;;;5001617;23;20049;-78
2022/08/11 14:36:57;;;;;;;5.22;2.40;;;38.70;38.70;;;;;;5020111;28;20069;-79
2022/08/11 14:39:34;;;;;;;5.70;2.50;;;37.40;39.00;;;;;;5001901;28;20021;-79
2022/08/11 14:47:49;;;;;;;6.32;2.70;;;37.50;39.10;;;;;;5020626;28;20091;-78
2022/08/11 14:50:24;;;;;;;5.10;2.45;;;36.10;38.30;;;;;;5019594;28;20058;-79
2022/08/11 14:52:53;;;;;;;7.13;2.70;;;38.10;38.00;;;;;;5020203;28;20021;-78
2022/08/11 14:58:13;;;;;;;6.43;2.50;;;38.80;37.90;;;;;;5023479;28;20036;-79
2022/08/11 15:00:41;;;;;;;4.60;2.33;;;39.30;36.90;;;;;;5022976;28;20217;-78
2022/08/11 15:03:19;;;;;;;7.57;2.45;;;38.80;36.90;;;;;;5020854;28;20358;-79
2022/08/11 15:05:51;;;;;;;7.00;2.72;;;39.50;37.80;;;;;;5022088;28;20025;-78
2022/08/11 15:08:19;;;;;;;6.90;2.50;;;39.50;36.70;;;;;;5022311;28;20017;-79
2022/08/11 15:10:56;;;;;;;4.80;2.33;;;39.40;37.20;;;;;;5022155;28;20025;-79
2022/08/11 15:13:22;;;;;;;5.43;2.22;;;38.90;36.90;;;;;;5020230;28;20025;-81
2022/08/11 15:18:36;;;;;;;6.35;2.33;;;37.90;36.70;;;;;;5021573;28;20628;-79
2022/08/11 15:37:51;;;;;;;4.35;1.85;;;34.10;39.30;;;;;;5020923;28;20103;-81
2022/08/11 15:46:47;;;;;;;6.32;2.20;;;34.30;39.50;;;;;;5021834;28;20569;-79
2022/08/11 15:49:40;;;;;;;4.97;2.13;;;35.50;40.60;;;;;;5019965;28;20021;-79
2022/08/11 15:52:22;;;;;;;5.13;1.90;;;35.90;39.50;;;;;;5019917;28;20128;-78
2022/08/11 15:54:52;;;;;;;5.38;2.30;;;36.70;39.70;;;;;;5021051;28;20017;-79
2022/08/11 16:06:12;;;;;;;5.15;2.13;;;36.10;39.40;;;;;;5021253;28;20099;-79
2022/08/11 16:08:55;;;;;;;3.55;1.60;;;36.20;38.70;;;;;;5019388;28;20014;-80
2022/08/11 16:11:25;;;;;;;5.57;1.67;;;35.50;40.50;;;;;;5020420;28;20033;-81
2022/08/11 16:16:41;;;;;;;7.75;1.65;;;33.70;38.10;;;;;;5020447;28;20100;-78
2022/08/11 16:19:09;;;;;;;5.00;1.80;;;32.70;40.80;;;;;;5020934;28;20021;-89
2022/08/11 16:21:39;;;;;;;3.70;1.65;;;32.20;40.80;;;;;;5018874;28;20117;-79
2022/08/11 16:24:16;;;;;;;2.88;1.50;;;31.10;42.80;;;;;;5020359;28;20075;-78
2022/08/11 16:26:46;;;;;;;3.90;1.45;;;28.00;41.70;;;;;;5020158;28;20091;-81
2022/08/11 16:29:22;;;;;;;5.07;1.75;;;29.60;44.00;;;;;;5020305;28;20109;-80
2022/08/11 16:32:15;;;;;;;3.90;1.35;;;29.90;45.10;;;;;;5020311;28;20065;-79
2022/08/11 16:40:21;;;;;;;3.22;1.45;;;27.80;46.50;;;;;;5020992;28;20044;-80
2022/08/11 16:48:22;;;;;;;3.50;1.50;;;26.40;48.30;;;;;;5020606;28;20233;-80
2022/08/11 16:50:59;;;;;;;6.53;1.90;;;26.70;48.20;;;;;;5020355;28;20036;-79
2022/08/11 16:53:29;;;;;;;3.80;1.60;;;29.40;50.70;;;;;;5020306;28;20022;-79
2022/08/11 16:56:02;;;;;;;3.47;1.45;;;26.40;48.50;;;;;;5018757;28;20029;-79
2022/08/11 17:01:20;;;;;;;4.45;1.58;;;25.90;49.50;;;;;;5019854;28;20056;-81
2022/08/11 17:18:38;;;;;;;4.18;1.52;;;24.90;56.30;;;;;;5019121;28;20036;-81
2022/08/11 17:21:04;;;;;;;4.63;2.00;;;24.90;57.70;;;;;;5020073;28;20037;-79
2022/08/11 17:23:51;;;;;;;2.97;1.40;;;24.90;58.80;;;;;;5018662;28;20030;-81
2022/08/11 17:26:57;;;;;;;4.35;1.65;;;24.70;53.40;;;;;;5017478;28;20041;-82
2022/08/11 17:29:29;;;;;;;4.13;1.95;;;24.50;53.30;;;;;;5015780;23;20053;-80
2022/08/11 17:35:33;;;;;;;4.18;1.77;;;26.90;64.30;;;;;;5023691;28;20087;-79
2022/08/11 17:38:02;;;;;;;3.70;1.80;;;24.80;54.90;;;;;;4998681;28;20588;-79
2022/08/11 17:49:26;;;;;;;3.95;1.70;;;23.70;61.00;;;;;;4958959;28;20049;-78
2022/08/11 18:00:41;;;;;;;6.03;1.83;;;25.50;58.40;;;;;;4958340;28;20089;-78
2022/08/11 18:03:40;;;;;;;4.65;1.65;;;23.30;57.70;;;;;;4942645;28;20364;-80
2022/08/11 18:06:10;;;;;;;4.57;1.90;;;22.80;56.60;;;;;;4926775;29;20055;-78
